Terminal Aerodrome Forecast
Issued by NWS Raleigh/Durham, NC

Home | Current Version | Previous Version | Text Only | Print | Product List | Glossary On
Versions: 1 2 3 4 5 6 7 8 9 10 11 12 13 14 15 16
000
FTUS42 KRAH 220810 AAA
TAFGSO
TAF AMD
KGSO 220810Z 2208/2306 VRB03KT 5SM BR OVC030
      TEMPO 2208/2210 2SM -RA BR BKN020
     FM221000 VRB03KT 6SM BR SCT006 OVC035
      TEMPO 2210/2212 2SM -SHRA BR BKN006 OVC035
     FM221200 VRB04KT 6SM BR VCSH SCT005 BKN010 OVC080
      TEMPO 2212/2215 3SM SHRA BR OVC006
     FM222100 VRB03KT P6SM SCT015 BKN080=

USA.gov is the U.S. government's official web portal to all federal, state and local government web resources and services.